sensor_id;sensor_type;location;lat;lon;timestamp;P1;durP1;ratioP1;P2;durP2;ratioP2
36653;SDS011;22650;49.350;20.898;2022-08-18T00:02:01;16.35;;;10.30;;
36653;SDS011;22650;49.350;20.898;2022-08-18T00:04:37;14.02;;;9.90;;
36653;SDS011;22650;49.350;20.898;2022-08-18T00:07:20;14.57;;;9.85;;
36653;SDS011;22650;49.350;20.898;2022-08-18T00:09:57;13.63;;;9.95;;
36653;SDS011;22650;49.350;20.898;2022-08-18T00:12:32;16.08;;;9.93;;
36653;SDS011;22650;49.350;20.898;2022-08-18T00:15:09;15.50;;;9.88;;
36653;SDS011;22650;49.350;20.898;2022-08-18T00:17:44;16.75;;;10.55;;
36653;SDS011;22650;49.350;20.898;2022-08-18T00:20:19;15.38;;;9.88;;
36653;SDS011;22650;49.350;20.898;2022-08-18T00:22:54;16.08;;;9.30;;
36653;SDS011;22650;49.350;20.898;2022-08-18T00:25:29;15.63;;;9.27;;
36653;SDS011;22650;49.350;20.898;2022-08-18T00:28:03;13.80;;;8.65;;
36653;SDS011;22650;49.350;20.898;2022-08-18T00:30:36;15.20;;;9.85;;
36653;SDS011;22650;49.350;20.898;2022-08-18T00:33:10;14.82;;;9.50;;
36653;SDS011;22650;49.350;20.898;2022-08-18T00:35:44;15.60;;;10.10;;
36653;SDS011;22650;49.350;20.898;2022-08-18T00:38:17;16.85;;;10.40;;
36653;SDS011;22650;49.350;20.898;2022-08-18T00:40:56;21.77;;;11.43;;
36653;SDS011;22650;49.350;20.898;2022-08-18T00:43:33;17.40;;;10.88;;
36653;SDS011;22650;49.350;20.898;2022-08-18T00:46:11;17.15;;;10.75;;
36653;SDS011;22650;49.350;20.898;2022-08-18T00:48:48;15.68;;;10.45;;
36653;SDS011;22650;49.350;20.898;2022-08-18T00:51:23;13.60;;;9.13;;
36653;SDS011;22650;49.350;20.898;2022-08-18T00:54:02;14.90;;;10.00;;
36653;SDS011;22650;49.350;20.898;2022-08-18T00:56:42;18.88;;;11.15;;
36653;SDS011;22650;49.350;20.898;2022-08-18T00:59:20;15.00;;;9.70;;
36653;SDS011;22650;49.350;20.898;2022-08-18T01:01:59;15.63;;;10.68;;
36653;SDS011;22650;49.350;20.898;2022-08-18T01:04:36;16.35;;;9.88;;
36653;SDS011;22650;49.350;20.898;2022-08-18T01:07:15;18.88;;;9.57;;
36653;SDS011;22650;49.350;20.898;2022-08-18T01:09:51;13.50;;;9.23;;
36653;SDS011;22650;49.350;20.898;2022-08-18T01:12:26;13.85;;;9.60;;
36653;SDS011;22650;49.350;20.898;2022-08-18T01:15:15;21.17;;;10.68;;
36653;SDS011;22650;49.350;20.898;2022-08-18T01:18:02;13.15;;;9.50;;
36653;SDS011;22650;49.350;20.898;2022-08-18T01:20:58;17.02;;;9.13;;
36653;SDS011;22650;49.350;20.898;2022-08-18T01:23:55;14.73;;;9.93;;
36653;SDS011;22650;49.350;20.898;2022-08-18T01:26:30;16.23;;;10.25;;
36653;SDS011;22650;49.350;20.898;2022-08-18T01:29:06;13.73;;;8.88;;
36653;SDS011;22650;49.350;20.898;2022-08-18T01:31:50;15.90;;;9.70;;
36653;SDS011;22650;49.350;20.898;2022-08-18T01:34:27;16.42;;;9.77;;
36653;SDS011;22650;49.350;20.898;2022-08-18T01:37:00;16.88;;;11.15;;
36653;SDS011;22650;49.350;20.898;2022-08-18T01:39:37;15.07;;;10.23;;
36653;SDS011;22650;49.350;20.898;2022-08-18T01:42:31;13.82;;;9.57;;
36653;SDS011;22650;49.350;20.898;2022-08-18T01:45:06;14.05;;;9.55;;
36653;SDS011;22650;49.350;20.898;2022-08-18T01:47:40;15.90;;;9.90;;
36653;SDS011;22650;49.350;20.898;2022-08-18T01:50:18;16.02;;;10.02;;
36653;SDS011;22650;49.350;20.898;2022-08-18T01:52:52;17.88;;;10.25;;
36653;SDS011;22650;49.350;20.898;2022-08-18T01:55:27;18.13;;;10.25;;
36653;SDS011;22650;49.350;20.898;2022-08-18T01:58:01;15.35;;;11.10;;
36653;SDS011;22650;49.350;20.898;2022-08-18T02:00:35;14.38;;;10.15;;
36653;SDS011;22650;49.350;20.898;2022-08-18T02:03:10;17.15;;;11.75;;
36653;SDS011;22650;49.350;20.898;2022-08-18T02:05:46;15.43;;;10.73;;
36653;SDS011;22650;49.350;20.898;2022-08-18T02:08:23;16.45;;;11.65;;
36653;SDS011;22650;49.350;20.898;2022-08-18T02:11:00;17.90;;;10.18;;
36653;SDS011;22650;49.350;20.898;2022-08-18T02:13:34;15.88;;;10.18;;
36653;SDS011;22650;49.350;20.898;2022-08-18T02:16:08;15.40;;;9.70;;
36653;SDS011;22650;49.350;20.898;2022-08-18T02:18:41;16.38;;;10.95;;
36653;SDS011;22650;49.350;20.898;2022-08-18T02:21:19;21.05;;;10.90;;
36653;SDS011;22650;49.350;20.898;2022-08-18T02:23:53;26.33;;;10.23;;
36653;SDS011;22650;49.350;20.898;2022-08-18T02:26:28;15.10;;;10.05;;
36653;SDS011;22650;49.350;20.898;2022-08-18T02:29:02;12.30;;;8.25;;
36653;SDS011;22650;49.350;20.898;2022-08-18T02:31:37;24.25;;;12.50;;
36653;SDS011;22650;49.350;20.898;2022-08-18T02:34:10;19.25;;;11.90;;
36653;SDS011;22650;49.350;20.898;2022-08-18T02:36:44;21.08;;;13.00;;
36653;SDS011;22650;49.350;20.898;2022-08-18T02:39:17;17.80;;;12.00;;
36653;SDS011;22650;49.350;20.898;2022-08-18T02:41:52;18.05;;;11.60;;
36653;SDS011;22650;49.350;20.898;2022-08-18T02:44:26;31.35;;;13.35;;
36653;SDS011;22650;49.350;20.898;2022-08-18T02:47:00;21.05;;;12.80;;
36653;SDS011;22650;49.350;20.898;2022-08-18T02:49:33;20.90;;;13.15;;
36653;SDS011;22650;49.350;20.898;2022-08-18T02:52:08;30.05;;;14.35;;
36653;SDS011;22650;49.350;20.898;2022-08-18T02:54:41;22.63;;;12.80;;
36653;SDS011;22650;49.350;20.898;2022-08-18T02:57:16;21.90;;;14.07;;
36653;SDS011;22650;49.350;20.898;2022-08-18T02:59:53;26.77;;;13.90;;
36653;SDS011;22650;49.350;20.898;2022-08-18T03:02:30;22.30;;;13.93;;
36653;SDS011;22650;49.350;20.898;2022-08-18T03:05:04;23.65;;;13.13;;
36653;SDS011;22650;49.350;20.898;2022-08-18T03:07:45;20.10;;;12.55;;
36653;SDS011;22650;49.350;20.898;2022-08-18T03:10:19;17.00;;;12.45;;
36653;SDS011;22650;49.350;20.898;2022-08-18T03:13:05;16.88;;;11.40;;
36653;SDS011;22650;49.350;20.898;2022-08-18T03:15:38;20.52;;;13.07;;
36653;SDS011;22650;49.350;20.898;2022-08-18T03:18:12;25.42;;;14.00;;
36653;SDS011;22650;49.350;20.898;2022-08-18T03:20:46;20.05;;;13.27;;
36653;SDS011;22650;49.350;20.898;2022-08-18T03:23:20;22.10;;;12.85;;
36653;SDS011;22650;49.350;20.898;2022-08-18T03:26:00;19.95;;;13.00;;
36653;SDS011;22650;49.350;20.898;2022-08-18T03:28:36;24.08;;;13.90;;
36653;SDS011;22650;49.350;20.898;2022-08-18T03:31:11;22.48;;;14.90;;
36653;SDS011;22650;49.350;20.898;2022-08-18T03:33:46;24.80;;;14.95;;
36653;SDS011;22650;49.350;20.898;2022-08-18T03:36:21;31.05;;;16.40;;
36653;SDS011;22650;49.350;20.898;2022-08-18T03:38:56;26.00;;;15.82;;
36653;SDS011;22650;49.350;20.898;2022-08-18T03:41:30;22.77;;;13.05;;
36653;SDS011;22650;49.350;20.898;2022-08-18T03:44:26;20.85;;;12.73;;
36653;SDS011;22650;49.350;20.898;2022-08-18T03:47:01;27.23;;;14.85;;
36653;SDS011;22650;49.350;20.898;2022-08-18T03:49:35;25.33;;;14.35;;
36653;SDS011;22650;49.350;20.898;2022-08-18T03:52:09;21.42;;;12.63;;
36653;SDS011;22650;49.350;20.898;2022-08-18T03:54:43;19.23;;;12.02;;
36653;SDS011;22650;49.350;20.898;2022-08-18T03:57:17;22.23;;;13.05;;
36653;SDS011;22650;49.350;20.898;2022-08-18T03:59:52;54.60;;;18.25;;
36653;SDS011;22650;49.350;20.898;2022-08-18T04:02:25;18.55;;;12.30;;
36653;SDS011;22650;49.350;20.898;2022-08-18T04:05:16;20.92;;;12.10;;
36653;SDS011;22650;49.350;20.898;2022-08-18T04:07:50;16.65;;;11.63;;
36653;SDS011;22650;49.350;20.898;2022-08-18T04:10:25;18.13;;;11.77;;
36653;SDS011;22650;49.350;20.898;2022-08-18T04:12:58;25.08;;;14.55;;
36653;SDS011;22650;49.350;20.898;2022-08-18T04:15:35;26.65;;;13.88;;
36653;SDS011;22650;49.350;20.898;2022-08-18T04:18:08;25.00;;;14.32;;
36653;SDS011;22650;49.350;20.898;2022-08-18T04:20:42;24.48;;;14.50;;
36653;SDS011;22650;49.350;20.898;2022-08-18T04:23:30;20.23;;;13.50;;
36653;SDS011;22650;49.350;20.898;2022-08-18T04:26:14;24.08;;;12.93;;
36653;SDS011;22650;49.350;20.898;2022-08-18T04:28:50;30.05;;;13.27;;
36653;SDS011;22650;49.350;20.898;2022-08-18T04:31:24;22.55;;;14.52;;
36653;SDS011;22650;49.350;20.898;2022-08-18T04:33:59;39.72;;;15.02;;
36653;SDS011;22650;49.350;20.898;2022-08-18T04:36:34;20.70;;;12.23;;
36653;SDS011;22650;49.350;20.898;2022-08-18T04:39:08;27.98;;;14.05;;
36653;SDS011;22650;49.350;20.898;2022-08-18T04:41:43;20.55;;;13.40;;
36653;SDS011;22650;49.350;20.898;2022-08-18T04:44:16;19.92;;;13.10;;
36653;SDS011;22650;49.350;20.898;2022-08-18T04:46:52;19.85;;;13.48;;
36653;SDS011;22650;49.350;20.898;2022-08-18T04:49:26;20.92;;;13.63;;
36653;SDS011;22650;49.350;20.898;2022-08-18T04:52:02;19.88;;;13.98;;
36653;SDS011;22650;49.350;20.898;2022-08-18T04:55:11;16.95;;;12.18;;
36653;SDS011;22650;49.350;20.898;2022-08-18T04:57:45;15.85;;;11.98;;
36653;SDS011;22650;49.350;20.898;2022-08-18T05:00:19;18.20;;;11.85;;
36653;SDS011;22650;49.350;20.898;2022-08-18T05:02:54;17.13;;;11.30;;
36653;SDS011;22650;49.350;20.898;2022-08-18T05:05:28;20.58;;;13.75;;
36653;SDS011;22650;49.350;20.898;2022-08-18T05:08:01;17.13;;;12.45;;
36653;SDS011;22650;49.350;20.898;2022-08-18T05:10:35;25.45;;;13.90;;
36653;SDS011;22650;49.350;20.898;2022-08-18T05:13:10;17.98;;;11.55;;
36653;SDS011;22650;49.350;20.898;2022-08-18T05:15:51;18.67;;;12.68;;
36653;SDS011;22650;49.350;20.898;2022-08-18T05:18:43;15.70;;;11.13;;
36653;SDS011;22650;49.350;20.898;2022-08-18T05:21:17;16.38;;;11.02;;
36653;SDS011;22650;49.350;20.898;2022-08-18T05:23:51;15.45;;;10.07;;
36653;SDS011;22650;49.350;20.898;2022-08-18T05:26:24;17.48;;;11.40;;
36653;SDS011;22650;49.350;20.898;2022-08-18T05:28:58;17.35;;;11.27;;
36653;SDS011;22650;49.350;20.898;2022-08-18T05:31:50;26.05;;;11.52;;
36653;SDS011;22650;49.350;20.898;2022-08-18T05:34:25;15.02;;;9.48;;
36653;SDS011;22650;49.350;20.898;2022-08-18T05:37:06;17.23;;;11.32;;
36653;SDS011;22650;49.350;20.898;2022-08-18T05:39:51;16.42;;;10.27;;
36653;SDS011;22650;49.350;20.898;2022-08-18T05:42:28;16.77;;;10.57;;
36653;SDS011;22650;49.350;20.898;2022-08-18T05:45:07;18.02;;;11.15;;
36653;SDS011;22650;49.350;20.898;2022-08-18T05:47:44;21.80;;;13.43;;
36653;SDS011;22650;49.350;20.898;2022-08-18T05:50:19;14.68;;;11.13;;
36653;SDS011;22650;49.350;20.898;2022-08-18T05:52:54;26.42;;;11.85;;
36653;SDS011;22650;49.350;20.898;2022-08-18T05:55:32;20.45;;;11.60;;
36653;SDS011;22650;49.350;20.898;2022-08-18T05:58:27;15.73;;;10.38;;
36653;SDS011;22650;49.350;20.898;2022-08-18T06:01:05;16.38;;;10.48;;
36653;SDS011;22650;49.350;20.898;2022-08-18T06:03:44;17.95;;;12.25;;
36653;SDS011;22650;49.350;20.898;2022-08-18T06:06:24;13.27;;;9.18;;
36653;SDS011;22650;49.350;20.898;2022-08-18T06:09:02;13.32;;;9.23;;
36653;SDS011;22650;49.350;20.898;2022-08-18T06:11:42;9.53;;;7.40;;
36653;SDS011;22650;49.350;20.898;2022-08-18T06:14:16;12.82;;;9.15;;
36653;SDS011;22650;49.350;20.898;2022-08-18T06:16:52;13.55;;;9.65;;
36653;SDS011;22650;49.350;20.898;2022-08-18T06:19:38;14.52;;;9.93;;
36653;SDS011;22650;49.350;20.898;2022-08-18T06:22:24;14.30;;;10.30;;
36653;SDS011;22650;49.350;20.898;2022-08-18T06:25:24;11.73;;;8.90;;
36653;SDS011;22650;49.350;20.898;2022-08-18T06:28:06;11.30;;;8.65;;
36653;SDS011;22650;49.350;20.898;2022-08-18T06:30:46;11.32;;;9.20;;
36653;SDS011;22650;49.350;20.898;2022-08-18T06:36:24;14.25;;;9.70;;
36653;SDS011;22650;49.350;20.898;2022-08-18T06:39:11;14.55;;;9.70;;
36653;SDS011;22650;49.350;20.898;2022-08-18T06:41:51;12.90;;;9.75;;
36653;SDS011;22650;49.350;20.898;2022-08-18T06:44:28;13.82;;;9.43;;
36653;SDS011;22650;49.350;20.898;2022-08-18T06:47:08;11.38;;;8.00;;
36653;SDS011;22650;49.350;20.898;2022-08-18T06:49:49;13.25;;;8.45;;
36653;SDS011;22650;49.350;20.898;2022-08-18T06:52:28;12.43;;;9.68;;
36653;SDS011;22650;49.350;20.898;2022-08-18T06:55:06;11.73;;;8.68;;
36653;SDS011;22650;49.350;20.898;2022-08-18T06:57:51;12.50;;;9.00;;
36653;SDS011;22650;49.350;20.898;2022-08-18T07:00:27;15.65;;;9.45;;
36653;SDS011;22650;49.350;20.898;2022-08-18T07:03:04;12.95;;;9.90;;
36653;SDS011;22650;49.350;20.898;2022-08-18T07:05:55;12.25;;;8.95;;
36653;SDS011;22650;49.350;20.898;2022-08-18T07:08:33;15.85;;;9.90;;
36653;SDS011;22650;49.350;20.898;2022-08-18T07:11:12;13.80;;;10.40;;
36653;SDS011;22650;49.350;20.898;2022-08-18T07:13:51;14.98;;;9.60;;
36653;SDS011;22650;49.350;20.898;2022-08-18T07:16:46;11.63;;;8.65;;
36653;SDS011;22650;49.350;20.898;2022-08-18T07:19:30;12.50;;;8.38;;
36653;SDS011;22650;49.350;20.898;2022-08-18T07:22:05;12.70;;;8.90;;
36653;SDS011;22650;49.350;20.898;2022-08-18T07:24:41;15.75;;;10.43;;
36653;SDS011;22650;49.350;20.898;2022-08-18T07:27:21;14.73;;;9.05;;
36653;SDS011;22650;49.350;20.898;2022-08-18T07:30:14;12.60;;;8.88;;
36653;SDS011;22650;49.350;20.898;2022-08-18T07:32:59;12.00;;;8.48;;
36653;SDS011;22650;49.350;20.898;2022-08-18T07:35:43;12.07;;;7.35;;
36653;SDS011;22650;49.350;20.898;2022-08-18T07:38:21;13.85;;;8.15;;
36653;SDS011;22650;49.350;20.898;2022-08-18T07:41:16;9.93;;;7.38;;
36653;SDS011;22650;49.350;20.898;2022-08-18T07:43:58;11.93;;;7.75;;
36653;SDS011;22650;49.350;20.898;2022-08-18T07:46:45;14.05;;;7.78;;
36653;SDS011;22650;49.350;20.898;2022-08-18T07:49:26;15.80;;;8.32;;
36653;SDS011;22650;49.350;20.898;2022-08-18T07:52:06;11.20;;;7.53;;
36653;SDS011;22650;49.350;20.898;2022-08-18T07:55:06;11.35;;;8.15;;
36653;SDS011;22650;49.350;20.898;2022-08-18T07:57:48;12.95;;;7.35;;
36653;SDS011;22650;49.350;20.898;2022-08-18T08:00:30;11.10;;;7.53;;
36653;SDS011;22650;49.350;20.898;2022-08-18T08:03:33;14.23;;;7.03;;
36653;SDS011;22650;49.350;20.898;2022-08-18T08:06:15;11.13;;;6.90;;
36653;SDS011;22650;49.350;20.898;2022-08-18T08:08:56;10.90;;;6.57;;
36653;SDS011;22650;49.350;20.898;2022-08-18T08:11:38;11.32;;;7.20;;
36653;SDS011;22650;49.350;20.898;2022-08-18T08:14:24;8.98;;;7.15;;
36653;SDS011;22650;49.350;20.898;2022-08-18T08:17:11;7.85;;;6.25;;
36653;SDS011;22650;49.350;20.898;2022-08-18T08:19:58;10.05;;;6.93;;
36653;SDS011;22650;49.350;20.898;2022-08-18T08:22:43;10.15;;;7.07;;
36653;SDS011;22650;49.350;20.898;2022-08-18T08:25:32;7.68;;;6.63;;
36653;SDS011;22650;49.350;20.898;2022-08-18T08:28:20;9.93;;;6.35;;
36653;SDS011;22650;49.350;20.898;2022-08-18T08:31:04;8.48;;;5.82;;
36653;SDS011;22650;49.350;20.898;2022-08-18T08:34:05;8.07;;;6.00;;
36653;SDS011;22650;49.350;20.898;2022-08-18T08:36:45;8.68;;;6.38;;
36653;SDS011;22650;49.350;20.898;2022-08-18T08:39:20;16.85;;;6.20;;
36653;SDS011;22650;49.350;20.898;2022-08-18T08:41:57;10.30;;;5.88;;
36653;SDS011;22650;49.350;20.898;2022-08-18T08:44:59;10.25;;;5.57;;
36653;SDS011;22650;49.350;20.898;2022-08-18T08:47:39;5.95;;;5.07;;
36653;SDS011;22650;49.350;20.898;2022-08-18T08:50:20;10.63;;;5.18;;
36653;SDS011;22650;49.350;20.898;2022-08-18T08:52:58;7.60;;;4.88;;
36653;SDS011;22650;49.350;20.898;2022-08-18T08:55:40;11.45;;;5.85;;
36653;SDS011;22650;49.350;20.898;2022-08-18T08:58:20;6.97;;;5.90;;
36653;SDS011;22650;49.350;20.898;2022-08-18T09:00:58;12.15;;;5.35;;
36653;SDS011;22650;49.350;20.898;2022-08-18T09:03:35;9.00;;;5.15;;
36653;SDS011;22650;49.350;20.898;2022-08-18T09:06:20;16.17;;;5.38;;
36653;SDS011;22650;49.350;20.898;2022-08-18T09:09:05;12.65;;;5.40;;
36653;SDS011;22650;49.350;20.898;2022-08-18T09:12:11;8.20;;;5.25;;
36653;SDS011;22650;49.350;20.898;2022-08-18T09:15:00;5.72;;;4.80;;
36653;SDS011;22650;49.350;20.898;2022-08-18T09:18:00;9.85;;;4.75;;
36653;SDS011;22650;49.350;20.898;2022-08-18T09:20:47;6.90;;;5.28;;
36653;SDS011;22650;49.350;20.898;2022-08-18T09:23:34;7.80;;;5.28;;
36653;SDS011;22650;49.350;20.898;2022-08-18T09:26:24;5.60;;;4.22;;
36653;SDS011;22650;49.350;20.898;2022-08-18T09:29:15;8.98;;;5.03;;
36653;SDS011;22650;49.350;20.898;2022-08-18T09:35:05;8.35;;;5.22;;
36653;SDS011;22650;49.350;20.898;2022-08-18T09:37:49;10.23;;;4.65;;
36653;SDS011;22650;49.350;20.898;2022-08-18T09:40:46;9.82;;;5.35;;
36653;SDS011;22650;49.350;20.898;2022-08-18T09:43:55;5.00;;;4.50;;
36653;SDS011;22650;49.350;20.898;2022-08-18T09:46:53;7.47;;;4.80;;
36653;SDS011;22650;49.350;20.898;2022-08-18T09:49:45;7.93;;;5.68;;
36653;SDS011;22650;49.350;20.898;2022-08-18T09:55:36;7.65;;;4.75;;
36653;SDS011;22650;49.350;20.898;2022-08-18T09:58:56;12.68;;;4.80;;
36653;SDS011;22650;49.350;20.898;2022-08-18T10:01:41;6.95;;;4.47;;
36653;SDS011;22650;49.350;20.898;2022-08-18T10:04:27;6.30;;;4.95;;
36653;SDS011;22650;49.350;20.898;2022-08-18T10:07:13;9.40;;;5.30;;
36653;SDS011;22650;49.350;20.898;2022-08-18T10:09:57;9.98;;;5.03;;
36653;SDS011;22650;49.350;20.898;2022-08-18T10:13:04;7.03;;;4.78;;
36653;SDS011;22650;49.350;20.898;2022-08-18T10:15:51;7.60;;;4.88;;
36653;SDS011;22650;49.350;20.898;2022-08-18T10:18:44;10.15;;;5.97;;
36653;SDS011;22650;49.350;20.898;2022-08-18T10:24:36;9.80;;;5.57;;
36653;SDS011;22650;49.350;20.898;2022-08-18T10:27:32;8.77;;;4.70;;
36653;SDS011;22650;49.350;20.898;2022-08-18T10:30:12;8.07;;;4.80;;
36653;SDS011;22650;49.350;20.898;2022-08-18T10:36:47;5.70;;;4.88;;
36653;SDS011;22650;49.350;20.898;2022-08-18T10:39:25;5.78;;;5.05;;
36653;SDS011;22650;49.350;20.898;2022-08-18T10:42:17;9.13;;;4.82;;
36653;SDS011;22650;49.350;20.898;2022-08-18T10:45:02;11.15;;;5.68;;
36653;SDS011;22650;49.350;20.898;2022-08-18T10:47:56;10.10;;;5.20;;
36653;SDS011;22650;49.350;20.898;2022-08-18T10:50:35;8.32;;;4.85;;
36653;SDS011;22650;49.350;20.898;2022-08-18T10:53:15;7.47;;;5.00;;
36653;SDS011;22650;49.350;20.898;2022-08-18T10:56:17;7.20;;;5.30;;
36653;SDS011;22650;49.350;20.898;2022-08-18T10:59:10;9.88;;;5.45;;
36653;SDS011;22650;49.350;20.898;2022-08-18T11:02:06;9.88;;;4.95;;
36653;SDS011;22650;49.350;20.898;2022-08-18T11:04:53;6.32;;;4.68;;
36653;SDS011;22650;49.350;20.898;2022-08-18T11:07:31;6.75;;;4.97;;
36653;SDS011;22650;49.350;20.898;2022-08-18T11:10:14;8.02;;;5.35;;
36653;SDS011;22650;49.350;20.898;2022-08-18T11:13:11;6.28;;;4.90;;
36653;SDS011;22650;49.350;20.898;2022-08-18T11:18:33;8.63;;;5.07;;
36653;SDS011;22650;49.350;20.898;2022-08-18T11:21:30;9.23;;;5.07;;
36653;SDS011;22650;49.350;20.898;2022-08-18T11:24:15;10.88;;;6.30;;
36653;SDS011;22650;49.350;20.898;2022-08-18T11:26:53;5.93;;;5.20;;
36653;SDS011;22650;49.350;20.898;2022-08-18T11:29:30;13.30;;;7.38;;
36653;SDS011;22650;49.350;20.898;2022-08-18T11:32:06;10.25;;;6.65;;
36653;SDS011;22650;49.350;20.898;2022-08-18T11:34:43;8.27;;;5.80;;
36653;SDS011;22650;49.350;20.898;2022-08-18T11:37:24;5.88;;;5.20;;
36653;SDS011;22650;49.350;20.898;2022-08-18T11:40:31;9.48;;;4.65;;
36653;SDS011;22650;49.350;20.898;2022-08-18T11:43:29;13.15;;;4.88;;
36653;SDS011;22650;49.350;20.898;2022-08-18T11:46:15;8.73;;;5.25;;
36653;SDS011;22650;49.350;20.898;2022-08-18T11:49:12;7.00;;;4.82;;
36653;SDS011;22650;49.350;20.898;2022-08-18T11:51:57;7.00;;;4.80;;
36653;SDS011;22650;49.350;20.898;2022-08-18T11:54:35;6.78;;;4.80;;
36653;SDS011;22650;49.350;20.898;2022-08-18T11:57:39;6.80;;;5.47;;
36653;SDS011;22650;49.350;20.898;2022-08-18T12:00:37;9.90;;;5.72;;
36653;SDS011;22650;49.350;20.898;2022-08-18T12:03:16;5.63;;;5.07;;
36653;SDS011;22650;49.350;20.898;2022-08-18T12:06:08;8.20;;;5.05;;
36653;SDS011;22650;49.350;20.898;2022-08-18T12:08:51;6.75;;;5.05;;
36653;SDS011;22650;49.350;20.898;2022-08-18T12:11:30;7.57;;;5.05;;
36653;SDS011;22650;49.350;20.898;2022-08-18T12:14:07;6.10;;;4.55;;
36653;SDS011;22650;49.350;20.898;2022-08-18T12:17:06;5.63;;;4.38;;
36653;SDS011;22650;49.350;20.898;2022-08-18T12:19:41;5.28;;;4.32;;
36653;SDS011;22650;49.350;20.898;2022-08-18T12:22:17;6.88;;;4.75;;
36653;SDS011;22650;49.350;20.898;2022-08-18T12:24:53;7.55;;;5.13;;
36653;SDS011;22650;49.350;20.898;2022-08-18T12:27:27;5.30;;;4.72;;
36653;SDS011;22650;49.350;20.898;2022-08-18T12:30:04;8.98;;;5.45;;
36653;SDS011;22650;49.350;20.898;2022-08-18T12:32:59;8.90;;;4.82;;
36653;SDS011;22650;49.350;20.898;2022-08-18T12:35:42;10.45;;;5.63;;
36653;SDS011;22650;49.350;20.898;2022-08-18T12:38:16;5.38;;;4.88;;
36653;SDS011;22650;49.350;20.898;2022-08-18T12:40:50;5.72;;;5.00;;
36653;SDS011;22650;49.350;20.898;2022-08-18T12:43:23;6.45;;;4.82;;
36653;SDS011;22650;49.350;20.898;2022-08-18T12:46:04;14.70;;;5.43;;
36653;SDS011;22650;49.350;20.898;2022-08-18T12:48:42;8.82;;;5.22;;
36653;SDS011;22650;49.350;20.898;2022-08-18T12:51:16;5.20;;;4.40;;
36653;SDS011;22650;49.350;20.898;2022-08-18T12:53:55;8.40;;;5.40;;
36653;SDS011;22650;49.350;20.898;2022-08-18T12:56:50;5.82;;;4.45;;
36653;SDS011;22650;49.350;20.898;2022-08-18T12:59:26;8.88;;;4.80;;
36653;SDS011;22650;49.350;20.898;2022-08-18T13:02:09;8.88;;;4.53;;
36653;SDS011;22650;49.350;20.898;2022-08-18T13:04:43;6.13;;;4.75;;
36653;SDS011;22650;49.350;20.898;2022-08-18T13:07:18;8.18;;;4.85;;
36653;SDS011;22650;49.350;20.898;2022-08-18T13:09:52;6.07;;;4.90;;
36653;SDS011;22650;49.350;20.898;2022-08-18T13:12:26;5.68;;;4.65;;
36653;SDS011;22650;49.350;20.898;2022-08-18T13:14:59;7.03;;;4.50;;
36653;SDS011;22650;49.350;20.898;2022-08-18T13:17:34;6.07;;;4.55;;
36653;SDS011;22650;49.350;20.898;2022-08-18T13:20:15;5.22;;;4.63;;
36653;SDS011;22650;49.350;20.898;2022-08-18T13:22:48;6.15;;;4.30;;
36653;SDS011;22650;49.350;20.898;2022-08-18T13:25:23;6.75;;;4.30;;
36653;SDS011;22650;49.350;20.898;2022-08-18T13:28:10;10.23;;;5.20;;
36653;SDS011;22650;49.350;20.898;2022-08-18T13:30:44;7.53;;;5.40;;
36653;SDS011;22650;49.350;20.898;2022-08-18T13:33:19;5.97;;;4.72;;
36653;SDS011;22650;49.350;20.898;2022-08-18T13:36:12;6.93;;;5.05;;
36653;SDS011;22650;49.350;20.898;2022-08-18T13:38:47;7.28;;;5.38;;
36653;SDS011;22650;49.350;20.898;2022-08-18T13:41:20;12.30;;;5.20;;
36653;SDS011;22650;49.350;20.898;2022-08-18T13:43:55;7.70;;;4.63;;
36653;SDS011;22650;49.350;20.898;2022-08-18T13:46:29;7.60;;;4.68;;
36653;SDS011;22650;49.350;20.898;2022-08-18T13:49:04;8.70;;;4.80;;
36653;SDS011;22650;49.350;20.898;2022-08-18T13:51:38;6.30;;;4.45;;
36653;SDS011;22650;49.350;20.898;2022-08-18T13:54:14;6.53;;;4.68;;
36653;SDS011;22650;49.350;20.898;2022-08-18T13:57:02;7.20;;;5.25;;
36653;SDS011;22650;49.350;20.898;2022-08-18T13:59:37;7.35;;;4.47;;
36653;SDS011;22650;49.350;20.898;2022-08-18T14:02:17;5.03;;;4.53;;
36653;SDS011;22650;49.350;20.898;2022-08-18T14:04:58;6.78;;;4.78;;
36653;SDS011;22650;49.350;20.898;2022-08-18T14:07:34;5.43;;;4.43;;
36653;SDS011;22650;49.350;20.898;2022-08-18T14:10:08;6.32;;;4.53;;
36653;SDS011;22650;49.350;20.898;2022-08-18T14:12:44;6.97;;;4.30;;
36653;SDS011;22650;49.350;20.898;2022-08-18T14:15:20;7.63;;;5.20;;
36653;SDS011;22650;49.350;20.898;2022-08-18T14:17:55;11.35;;;4.38;;
36653;SDS011;22650;49.350;20.898;2022-08-18T14:20:30;6.25;;;4.90;;
36653;SDS011;22650;49.350;20.898;2022-08-18T14:23:23;7.50;;;4.88;;
36653;SDS011;22650;49.350;20.898;2022-08-18T14:26:23;7.75;;;4.65;;
36653;SDS011;22650;49.350;20.898;2022-08-18T14:29:14;5.88;;;4.82;;
36653;SDS011;22650;49.350;20.898;2022-08-18T14:32:08;7.43;;;4.32;;
36653;SDS011;22650;49.350;20.898;2022-08-18T14:34:48;5.80;;;4.65;;
36653;SDS011;22650;49.350;20.898;2022-08-18T14:37:44;8.27;;;4.90;;
36653;SDS011;22650;49.350;20.898;2022-08-18T14:40:18;5.95;;;4.75;;
36653;SDS011;22650;49.350;20.898;2022-08-18T14:42:52;8.32;;;4.65;;
36653;SDS011;22650;49.350;20.898;2022-08-18T14:45:26;6.85;;;4.55;;
36653;SDS011;22650;49.350;20.898;2022-08-18T14:48:05;5.85;;;4.78;;
36653;SDS011;22650;49.350;20.898;2022-08-18T14:50:41;8.30;;;5.00;;
36653;SDS011;22650;49.350;20.898;2022-08-18T14:53:24;6.10;;;4.22;;
36653;SDS011;22650;49.350;20.898;2022-08-18T14:56:02;8.73;;;4.10;;
36653;SDS011;22650;49.350;20.898;2022-08-18T14:58:40;7.22;;;4.35;;
36653;SDS011;22650;49.350;20.898;2022-08-18T15:01:13;6.20;;;4.55;;
36653;SDS011;22650;49.350;20.898;2022-08-18T15:03:48;6.65;;;4.88;;
36653;SDS011;22650;49.350;20.898;2022-08-18T15:06:21;7.00;;;4.68;;
36653;SDS011;22650;49.350;20.898;2022-08-18T15:08:59;6.13;;;4.53;;
36653;SDS011;22650;49.350;20.898;2022-08-18T15:11:32;6.72;;;4.43;;
36653;SDS011;22650;49.350;20.898;2022-08-18T15:14:06;6.05;;;4.20;;
36653;SDS011;22650;49.350;20.898;2022-08-18T15:16:40;7.93;;;4.75;;
36653;SDS011;22650;49.350;20.898;2022-08-18T15:19:19;8.40;;;4.63;;
36653;SDS011;22650;49.350;20.898;2022-08-18T15:22:13;5.90;;;3.78;;
36653;SDS011;22650;49.350;20.898;2022-08-18T15:25:06;6.18;;;4.57;;
36653;SDS011;22650;49.350;20.898;2022-08-18T15:27:58;7.78;;;4.22;;
36653;SDS011;22650;49.350;20.898;2022-08-18T15:30:32;7.90;;;4.35;;
36653;SDS011;22650;49.350;20.898;2022-08-18T15:33:12;5.70;;;4.95;;
36653;SDS011;22650;49.350;20.898;2022-08-18T15:35:47;8.25;;;4.47;;
36653;SDS011;22650;49.350;20.898;2022-08-18T15:38:22;6.15;;;4.35;;
36653;SDS011;22650;49.350;20.898;2022-08-18T15:40:58;7.30;;;4.85;;
36653;SDS011;22650;49.350;20.898;2022-08-18T15:43:39;5.35;;;4.10;;
36653;SDS011;22650;49.350;20.898;2022-08-18T15:46:18;8.07;;;4.78;;
36653;SDS011;22650;49.350;20.898;2022-08-18T15:48:55;5.63;;;3.95;;
36653;SDS011;22650;49.350;20.898;2022-08-18T15:51:28;8.13;;;4.82;;
36653;SDS011;22650;49.350;20.898;2022-08-18T15:54:12;8.90;;;4.78;;
36653;SDS011;22650;49.350;20.898;2022-08-18T15:56:47;7.40;;;4.13;;
36653;SDS011;22650;49.350;20.898;2022-08-18T15:59:29;6.50;;;3.92;;
36653;SDS011;22650;49.350;20.898;2022-08-18T16:02:11;3.90;;;3.35;;